createdAt,value
2017-04-25T00:00:12.352Z,19.30
2017-04-25T00:01:11.583Z,19.30
2017-04-25T00:02:11.265Z,19.30
2017-04-25T00:03:11.282Z,19.30
2017-04-25T00:04:11.446Z,19.30
2017-04-25T00:05:11.545Z,19.30
2017-04-25T00:06:11.605Z,19.30
2017-04-25T00:07:11.471Z,19.30
2017-04-25T00:08:11.680Z,19.30
2017-04-25T00:09:13.537Z,19.30
2017-04-25T00:10:11.657Z,19.30
2017-04-25T00:11:12.672Z,19.30
2017-04-25T00:12:13.411Z,19.30
2017-04-25T00:13:12.817Z,19.30
2017-04-25T00:14:11.564Z,19.30
2017-04-25T00:15:14.020Z,19.30
2017-04-25T00:16:09.600Z,19.30
2017-04-25T00:17:13.527Z,19.30
2017-04-25T00:18:12.287Z,19.30
2017-04-25T00:19:11.473Z,19.30
2017-04-25T00:20:12.300Z,19.30
2017-04-25T00:21:11.930Z,19.30
2017-04-25T00:22:12.072Z,19.30
2017-04-25T00:23:11.266Z,19.30
2017-04-25T00:24:11.463Z,19.30
2017-04-25T00:25:12.669Z,19.30
2017-04-25T00:26:13.512Z,19.30
2017-04-25T00:27:12.275Z,19.30
2017-04-25T00:28:11.530Z,19.30
2017-04-25T00:29:11.675Z,19.30
2017-04-25T00:30:13.439Z,19.30
2017-04-25T00:31:10.116Z,19.30
2017-04-25T00:32:13.554Z,19.30
2017-04-25T00:33:13.159Z,19.30
2017-04-25T00:34:11.215Z,19.30
2017-04-25T00:35:11.926Z,19.30
2017-04-25T00:36:12.935Z,19.30
2017-04-25T00:37:11.947Z,19.30
2017-04-25T00:38:11.653Z,19.30
2017-04-25T00:39:12.656Z,19.30
2017-04-25T00:40:12.294Z,19.30
2017-04-25T00:41:11.446Z,19.30
2017-04-25T00:42:13.242Z,19.30
2017-04-25T00:43:11.944Z,19.30
2017-04-25T00:44:11.549Z,19.30
2017-04-25T00:45:12.166Z,19.30
2017-04-25T00:46:09.333Z,19.30
2017-04-25T00:47:12.948Z,19.30
2017-04-25T00:48:11.670Z,19.30
2017-04-25T00:49:11.806Z,19.30
2017-04-25T00:50:11.777Z,19.30
2017-04-25T00:51:09.614Z,19.30
2017-04-25T00:52:12.896Z,19.30
2017-04-25T00:53:12.620Z,19.30
2017-04-25T00:54:12.025Z,19.30
2017-04-25T00:55:12.379Z,19.30
2017-04-25T00:56:11.521Z,19.30
2017-04-25T00:57:11.499Z,19.30
2017-04-25T00:58:09.219Z,19.30
2017-04-25T00:59:12.253Z,19.30
2017-04-25T01:00:13.473Z,19.30
2017-04-25T01:01:12.005Z,19.30
2017-04-25T01:02:12.623Z,19.30
2017-04-25T01:03:12.640Z,19.30
2017-04-25T01:04:13.047Z,19.30
2017-04-25T01:05:12.104Z,19.30
2017-04-25T01:06:11.965Z,19.30
2017-04-25T01:07:11.887Z,19.30
2017-04-25T01:08:12.678Z,19.30
2017-04-25T01:09:12.300Z,19.30
2017-04-25T01:10:11.826Z,19.30
2017-04-25T01:11:09.618Z,19.40
2017-04-25T01:12:11.408Z,19.40
2017-04-25T01:13:11.995Z,19.30
2017-04-25T01:14:13.132Z,19.30
2017-04-25T01:15:12.651Z,19.30
2017-04-25T01:16:11.804Z,19.30
2017-04-25T01:17:13.738Z,19.30
2017-04-25T01:18:11.801Z,19.30
2017-04-25T01:19:12.065Z,19.30
2017-04-25T01:20:14.175Z,19.30
2017-04-25T01:21:11.182Z,19.30
2017-04-25T01:22:11.366Z,19.30
2017-04-25T01:23:12.025Z,19.30
2017-04-25T01:24:11.816Z,19.30
2017-04-25T01:25:13.456Z,19.30
2017-04-25T01:26:12.818Z,19.30
2017-04-25T01:27:12.395Z,19.30
2017-04-25T01:28:12.148Z,19.30
2017-04-25T01:29:11.156Z,19.30
2017-04-25T01:30:11.328Z,19.30
2017-04-25T01:31:11.273Z,19.30
2017-04-25T01:32:12.817Z,19.30
2017-04-25T01:33:12.836Z,19.30
2017-04-25T01:34:11.755Z,19.30
2017-04-25T01:35:10.599Z,19.30
2017-04-25T01:36:13.224Z,19.30
2017-04-25T01:37:12.734Z,19.30
2017-04-25T01:38:12.581Z,19.30
2017-04-25T01:39:13.221Z,19.30
2017-04-25T01:40:12.281Z,19.30
2017-04-25T01:41:14.073Z,19.30
2017-04-25T01:42:09.386Z,19.30
2017-04-25T01:43:13.864Z,19.30
2017-04-25T01:44:12.206Z,19.30
2017-04-25T01:45:11.959Z,19.30
2017-04-25T01:46:13.740Z,19.30
2017-04-25T01:47:13.819Z,19.30
2017-04-25T01:48:10.563Z,19.30
2017-04-25T01:49:13.168Z,19.30
2017-04-25T01:50:13.213Z,19.30
2017-04-25T01:51:11.958Z,19.30
2017-04-25T01:52:13.523Z,19.30
2017-04-25T01:53:12.251Z,19.30
2017-04-25T01:54:11.958Z,19.30
2017-04-25T01:55:11.874Z,19.30
2017-04-25T01:56:12.192Z,19.30
2017-04-25T01:57:11.188Z,19.30
2017-04-25T01:58:11.454Z,19.30
2017-04-25T01:59:12.269Z,19.30
2017-04-25T02:00:11.361Z,19.30
2017-04-25T02:01:11.304Z,19.30
2017-04-25T02:02:13.406Z,19.30
2017-04-25T02:03:11.589Z,19.30
2017-04-25T02:04:12.778Z,19.30
2017-04-25T02:05:12.885Z,19.30
2017-04-25T02:06:11.989Z,19.30
2017-04-25T02:07:10.138Z,19.30
2017-04-25T02:08:12.287Z,19.30
2017-04-25T02:09:11.839Z,19.30
2017-04-25T02:10:12.643Z,19.30
2017-04-25T02:11:12.554Z,19.30
2017-04-25T02:12:12.292Z,19.30
2017-04-25T02:13:12.915Z,19.30
2017-04-25T02:14:09.660Z,19.30
2017-04-25T02:15:12.024Z,19.30
2017-04-25T02:16:11.123Z,19.30
2017-04-25T02:17:11.475Z,19.30
2017-04-25T02:18:11.505Z,19.30
2017-04-25T02:19:12.318Z,19.30
2017-04-25T02:20:11.995Z,19.30
2017-04-25T02:21:12.856Z,19.30
2017-04-25T02:22:13.254Z,19.30
2017-04-25T02:23:09.738Z,19.30
2017-04-25T02:24:11.910Z,19.40
2017-04-25T02:25:11.174Z,19.30
2017-04-25T02:26:11.680Z,19.30
2017-04-25T02:27:09.180Z,19.30
2017-04-25T02:28:11.678Z,19.30
2017-04-25T02:29:12.517Z,19.30
2017-04-25T02:30:09.725Z,19.30
2017-04-25T02:31:12.608Z,19.30
2017-04-25T02:32:11.796Z,19.30
2017-04-25T02:33:12.809Z,19.30
2017-04-25T02:34:11.895Z,19.30
2017-04-25T02:35:12.899Z,19.30
2017-04-25T02:36:12.153Z,19.30
2017-04-25T02:37:12.661Z,19.30
2017-04-25T02:38:12.674Z,19.30
2017-04-25T02:39:12.668Z,19.30
2017-04-25T02:40:12.204Z,19.30
2017-04-25T02:41:08.954Z,19.30
2017-04-25T02:42:12.187Z,19.30
2017-04-25T02:43:11.271Z,19.30
2017-04-25T02:44:11.947Z,19.30
2017-04-25T02:45:11.784Z,19.30
2017-04-25T02:46:11.818Z,19.30
2017-04-25T02:47:13.524Z,19.30
2017-04-25T02:48:11.537Z,19.30
2017-04-25T02:49:12.983Z,19.30
2017-04-25T02:50:12.222Z,19.30
2017-04-25T02:51:11.830Z,19.30
2017-04-25T02:52:13.567Z,19.30
2017-04-25T02:53:12.264Z,19.30
2017-04-25T02:54:11.977Z,19.30
2017-04-25T02:55:11.003Z,19.30
2017-04-25T02:56:11.591Z,19.30
2017-04-25T02:57:11.640Z,19.30
2017-04-25T02:58:12.305Z,19.30
2017-04-25T02:59:11.874Z,19.30
2017-04-25T03:00:11.972Z,19.30
2017-04-25T03:01:13.000Z,19.30
2017-04-25T03:02:12.039Z,19.30
2017-04-25T03:03:11.158Z,19.30
2017-04-25T03:04:12.783Z,19.30
2017-04-25T03:05:11.857Z,19.30
2017-04-25T03:06:12.777Z,19.30
2017-04-25T03:07:11.858Z,19.30
2017-04-25T03:08:11.922Z,19.30
2017-04-25T03:09:10.266Z,19.30
2017-04-25T03:10:12.026Z,19.30
2017-04-25T03:11:13.991Z,19.30
2017-04-25T03:12:11.457Z,19.30
2017-04-25T03:13:14.198Z,19.30
2017-04-25T03:14:11.359Z,19.30
2017-04-25T03:15:12.382Z,19.30
2017-04-25T03:16:12.570Z,19.30
2017-04-25T03:17:13.390Z,19.40
2017-04-25T03:18:12.293Z,19.30
2017-04-25T03:19:12.171Z,19.30
2017-04-25T03:20:12.397Z,19.30
2017-04-25T03:21:12.438Z,19.30
2017-04-25T03:22:13.385Z,19.30
2017-04-25T03:23:12.368Z,19.30
2017-04-25T03:24:12.119Z,19.30
2017-04-25T03:25:11.799Z,19.30
2017-04-25T03:26:11.332Z,19.30
2017-04-25T03:27:12.518Z,19.30
2017-04-25T03:28:11.999Z,19.30
2017-04-25T03:29:11.917Z,19.30
2017-04-25T03:30:12.915Z,19.30
2017-04-25T03:31:11.982Z,19.30
2017-04-25T03:32:11.244Z,19.30
2017-04-25T03:33:11.782Z,19.40
2017-04-25T03:34:12.937Z,19.40
2017-04-25T03:35:11.951Z,19.30
2017-04-25T03:36:11.062Z,19.30
2017-04-25T03:37:09.601Z,19.40
2017-04-25T03:38:11.067Z,19.30
2017-04-25T03:39:11.513Z,19.40
2017-04-25T03:40:11.520Z,19.30
2017-04-25T03:41:14.186Z,19.30
2017-04-25T03:42:12.042Z,19.30
2017-04-25T03:43:11.654Z,19.30
2017-04-25T03:44:12.626Z,19.30
2017-04-25T03:45:13.925Z,19.40
2017-04-25T03:46:12.568Z,19.40
2017-04-25T03:47:13.470Z,19.40
2017-04-25T03:48:11.622Z,19.30
2017-04-25T03:49:13.439Z,19.40
2017-04-25T03:50:11.351Z,19.30
2017-04-25T03:51:12.096Z,19.30
2017-04-25T03:52:11.748Z,19.30
2017-04-25T03:53:11.963Z,19.30
2017-04-25T03:54:11.682Z,19.30
2017-04-25T03:55:12.710Z,19.40
2017-04-25T03:56:14.256Z,19.30
2017-04-25T03:57:10.022Z,19.30
2017-04-25T03:58:11.605Z,19.40
2017-04-25T03:59:11.626Z,19.30
2017-04-25T04:00:11.705Z,19.30
2017-04-25T04:01:11.611Z,19.30
2017-04-25T04:02:12.333Z,19.30
2017-04-25T04:03:11.336Z,19.30
2017-04-25T04:04:12.378Z,19.30
2017-04-25T04:05:12.895Z,19.30
2017-04-25T04:06:10.384Z,19.40
2017-04-25T04:07:11.561Z,19.30
2017-04-25T04:08:12.207Z,19.40
2017-04-25T04:09:11.317Z,19.40
2017-04-25T04:10:11.388Z,19.40
2017-04-25T04:11:12.341Z,19.40
2017-04-25T04:12:11.923Z,19.40
2017-04-25T04:13:09.168Z,19.40
2017-04-25T04:14:11.733Z,19.40
2017-04-25T04:15:11.816Z,19.30
2017-04-25T04:16:12.967Z,19.40
2017-04-25T04:17:13.136Z,19.40
2017-04-25T04:18:11.636Z,19.40
2017-04-25T04:19:11.708Z,19.40
2017-04-25T04:20:12.514Z,19.40
2017-04-25T04:21:11.461Z,19.40
2017-04-25T04:22:11.537Z,19.40
2017-04-25T04:23:11.535Z,19.40
2017-04-25T04:24:11.913Z,19.40
2017-04-25T04:25:13.075Z,19.40
2017-04-25T04:26:13.288Z,19.30
2017-04-25T04:27:11.374Z,19.30
2017-04-25T04:28:11.416Z,19.40
2017-04-25T04:29:12.675Z,19.30
2017-04-25T04:30:11.909Z,19.40
2017-04-25T04:31:12.133Z,19.40
2017-04-25T04:32:12.432Z,19.40
2017-04-25T04:33:11.463Z,19.40
2017-04-25T04:34:12.970Z,19.40
2017-04-25T04:35:11.102Z,19.40
2017-04-25T04:36:11.366Z,19.40
2017-04-25T04:37:12.727Z,19.40
2017-04-25T04:38:12.307Z,19.30
2017-04-25T04:39:11.305Z,19.40
2017-04-25T04:40:12.296Z,19.40
2017-04-25T04:41:11.757Z,19.40
2017-04-25T04:42:12.481Z,19.40
2017-04-25T04:43:12.300Z,19.40
2017-04-25T04:44:09.809Z,19.40
2017-04-25T04:45:12.119Z,19.40
2017-04-25T04:46:17.103Z,19.40
2017-04-25T04:47:11.131Z,19.40
2017-04-25T04:48:13.285Z,19.40
2017-04-25T04:49:11.778Z,19.40
2017-04-25T04:50:13.503Z,19.40
2017-04-25T04:51:11.538Z,19.40
2017-04-25T04:52:12.410Z,19.40
2017-04-25T04:53:09.906Z,19.40
2017-04-25T04:54:12.504Z,19.40
2017-04-25T04:55:11.210Z,19.40
2017-04-25T04:56:11.396Z,19.40
2017-04-25T04:57:12.187Z,19.40
2017-04-25T04:58:11.941Z,19.40
2017-04-25T04:59:09.895Z,19.40
2017-04-25T05:00:12.070Z,19.40
2017-04-25T05:01:11.724Z,19.40
2017-04-25T05:02:11.814Z,19.40
2017-04-25T05:03:12.189Z,19.40
2017-04-25T05:04:10.000Z,19.40
2017-04-25T05:05:11.348Z,19.40
2017-04-25T05:06:11.094Z,19.40
2017-04-25T05:07:11.586Z,19.40
2017-04-25T05:08:12.268Z,19.40
2017-04-25T05:09:12.022Z,19.40
2017-04-25T05:10:09.838Z,19.40
2017-04-25T05:11:12.281Z,19.40
2017-04-25T05:12:11.942Z,19.40
2017-04-25T05:13:11.048Z,19.40
2017-04-25T05:14:11.827Z,19.40
2017-04-25T05:15:12.718Z,19.40
2017-04-25T05:16:12.377Z,19.40
2017-04-25T05:17:12.284Z,19.40
2017-04-25T05:18:11.425Z,19.40
2017-04-25T05:19:11.795Z,19.40
2017-04-25T05:20:13.503Z,19.40
2017-04-25T05:21:11.559Z,19.40
2017-04-25T05:22:12.841Z,19.40
2017-04-25T05:23:12.623Z,19.40
2017-04-25T05:24:11.761Z,19.40
2017-04-25T05:25:11.882Z,19.40
2017-04-25T05:26:13.762Z,19.40
2017-04-25T05:27:12.287Z,19.40
2017-04-25T05:28:11.876Z,19.40
2017-04-25T05:29:13.232Z,19.40
2017-04-25T05:30:11.342Z,19.40
2017-04-25T05:31:12.076Z,19.40
2017-04-25T05:32:11.171Z,19.40
2017-04-25T05:33:11.705Z,19.40
2017-04-25T05:34:11.846Z,19.40
2017-04-25T05:35:13.457Z,19.40
2017-04-25T05:36:13.267Z,19.40
2017-04-25T05:37:11.153Z,19.40
2017-04-25T05:38:11.788Z,19.40
2017-04-25T05:39:12.273Z,19.40
2017-04-25T05:40:11.946Z,19.40
2017-04-25T05:41:09.780Z,19.40
2017-04-25T05:42:09.736Z,19.40
2017-04-25T05:43:11.932Z,19.40
2017-04-25T05:44:12.741Z,19.40
2017-04-25T05:45:13.352Z,19.40
2017-04-25T05:46:11.532Z,19.40
2017-04-25T05:47:12.349Z,19.40
2017-04-25T05:48:11.524Z,19.40
2017-04-25T05:49:12.044Z,19.40
2017-04-25T05:50:11.045Z,19.40
2017-04-25T05:51:12.863Z,19.40
2017-04-25T05:52:12.505Z,19.40
2017-04-25T05:53:11.813Z,19.40
2017-04-25T05:54:12.509Z,19.40
2017-04-25T05:55:11.488Z,19.40
2017-04-25T05:56:09.938Z,19.40
2017-04-25T05:57:11.613Z,19.40
2017-04-25T05:58:11.754Z,19.40
2017-04-25T05:59:12.339Z,19.40
2017-04-25T06:00:11.322Z,19.40
2017-04-25T06:01:12.028Z,19.40
2017-04-25T06:02:11.740Z,19.40
2017-04-25T06:03:12.588Z,19.40
2017-04-25T06:04:11.702Z,19.40
2017-04-25T06:05:11.759Z,19.40
2017-04-25T06:06:12.144Z,19.40
2017-04-25T06:07:12.328Z,19.40
2017-04-25T06:08:11.837Z,19.40
2017-04-25T06:09:13.912Z,19.40
2017-04-25T06:10:11.919Z,19.40
2017-04-25T06:11:11.872Z,19.40
2017-04-25T06:12:11.830Z,19.40
2017-04-25T06:13:12.035Z,19.40
2017-04-25T06:14:11.666Z,19.40
2017-04-25T06:15:12.287Z,19.40
2017-04-25T06:16:11.919Z,19.40
2017-04-25T06:17:12.507Z,19.40
2017-04-25T06:18:12.921Z,19.40
2017-04-25T06:19:13.030Z,19.40
2017-04-25T06:20:10.281Z,19.40
2017-04-25T06:21:12.264Z,19.40
2017-04-25T06:22:11.390Z,19.40
2017-04-25T06:23:11.926Z,19.40
2017-04-25T06:24:13.024Z,19.40
2017-04-25T06:25:11.208Z,19.40
2017-04-25T06:26:11.446Z,19.40
2017-04-25T06:27:11.539Z,19.40
2017-04-25T06:28:12.408Z,19.40
2017-04-25T06:29:11.577Z,19.40
2017-04-25T06:30:11.683Z,19.40
2017-04-25T06:31:11.668Z,19.40
2017-04-25T06:32:11.649Z,19.40
2017-04-25T06:33:12.401Z,19.40
2017-04-25T06:34:12.520Z,19.40
2017-04-25T06:35:11.503Z,19.40
2017-04-25T06:36:12.259Z,19.40
2017-04-25T06:37:11.295Z,19.40
2017-04-25T06:38:12.306Z,19.40
2017-04-25T06:39:12.068Z,19.40
2017-04-25T06:40:09.394Z,19.40
2017-04-25T06:41:11.076Z,19.40
2017-04-25T06:42:11.452Z,19.40
2017-04-25T06:43:12.100Z,19.40
2017-04-25T06:44:11.169Z,19.40
2017-04-25T06:45:11.850Z,19.40
2017-04-25T06:46:12.721Z,19.40
2017-04-25T06:47:12.562Z,19.40
2017-04-25T06:48:11.557Z,19.40
2017-04-25T06:49:12.331Z,19.40
2017-04-25T06:50:09.788Z,19.40
2017-04-25T06:51:11.500Z,19.40
2017-04-25T06:52:09.996Z,19.40
2017-04-25T06:53:09.768Z,19.40
2017-04-25T06:54:12.084Z,19.40
2017-04-25T06:55:12.943Z,19.40
2017-04-25T06:56:12.290Z,19.40
2017-04-25T06:57:11.904Z,19.40
2017-04-25T06:58:12.888Z,19.40
2017-04-25T06:59:10.439Z,19.40
2017-04-25T07:00:11.095Z,19.40
2017-04-25T07:01:11.282Z,19.40
2017-04-25T07:02:11.781Z,19.40
2017-04-25T07:03:12.462Z,19.50
2017-04-25T07:04:12.305Z,19.40
2017-04-25T07:05:11.289Z,19.40
2017-04-25T07:06:12.003Z,19.40
2017-04-25T07:07:11.169Z,19.40
2017-04-25T07:08:11.248Z,19.40
2017-04-25T07:09:10.016Z,19.40
2017-04-25T07:10:12.615Z,19.40
2017-04-25T07:11:12.801Z,19.40
2017-04-25T07:12:12.262Z,19.40
2017-04-25T07:13:12.099Z,19.40
2017-04-25T07:14:11.880Z,19.40
2017-04-25T07:15:13.395Z,19.40
2017-04-25T07:16:13.041Z,19.40
2017-04-25T07:17:12.932Z,19.40
2017-04-25T07:18:13.176Z,19.40
2017-04-25T07:19:12.288Z,19.40
2017-04-25T07:20:11.859Z,19.40
2017-04-25T07:21:12.367Z,19.40
2017-04-25T07:22:11.384Z,19.40
2017-04-25T07:23:12.263Z,19.40
2017-04-25T07:24:11.858Z,19.40
2017-04-25T07:25:12.431Z,19.40
2017-04-25T07:26:10.061Z,19.40
2017-04-25T07:27:11.585Z,19.40
2017-04-25T07:28:12.045Z,19.40
2017-04-25T07:29:11.192Z,19.40
2017-04-25T07:30:14.110Z,19.40
2017-04-25T07:31:11.625Z,19.40
2017-04-25T07:32:14.626Z,19.40
2017-04-25T07:33:12.433Z,19.40
2017-04-25T07:34:11.432Z,19.40
2017-04-25T07:35:13.644Z,19.40
2017-04-25T07:36:11.784Z,19.40
2017-04-25T07:37:11.819Z,19.40
2017-04-25T07:38:12.650Z,19.40
2017-04-25T07:39:11.608Z,19.40
2017-04-25T07:40:12.543Z,19.40
2017-04-25T07:41:13.469Z,19.40
2017-04-25T07:42:12.111Z,19.40
2017-04-25T07:43:10.947Z,19.40
2017-04-25T07:44:11.895Z,19.40
2017-04-25T07:45:13.800Z,19.40
2017-04-25T07:46:12.455Z,19.40
2017-04-25T07:47:11.510Z,19.40
2017-04-25T07:48:12.439Z,19.40
2017-04-25T07:49:11.953Z,19.40
2017-04-25T07:50:11.964Z,19.40
2017-04-25T07:51:11.102Z,19.40
2017-04-25T07:52:11.636Z,19.40
2017-04-25T07:53:12.315Z,19.40
2017-04-25T07:54:12.164Z,19.40
2017-04-25T07:55:11.958Z,19.40
2017-04-25T07:56:11.931Z,19.40
2017-04-25T07:57:11.953Z,19.40
2017-04-25T07:58:11.505Z,19.40
2017-04-25T07:59:11.434Z,19.40
2017-04-25T08:00:10.056Z,19.40
2017-04-25T08:01:13.193Z,19.40
2017-04-25T08:02:09.259Z,19.40
2017-04-25T08:03:13.427Z,19.40
2017-04-25T08:04:11.723Z,19.40
2017-04-25T08:05:09.662Z,19.40
2017-04-25T08:06:12.246Z,19.40
2017-04-25T08:07:11.033Z,19.40
2017-04-25T08:08:11.213Z,19.40
2017-04-25T08:09:11.392Z,19.40
2017-04-25T08:10:12.015Z,19.40
2017-04-25T08:11:09.303Z,19.40
2017-04-25T08:12:11.965Z,19.40
2017-04-25T08:13:11.859Z,19.40
2017-04-25T08:14:12.023Z,19.40
2017-04-25T08:15:12.565Z,19.40
2017-04-25T08:16:12.071Z,19.50
2017-04-25T08:17:08.995Z,19.50
2017-04-25T08:18:13.315Z,19.50
2017-04-25T08:19:11.311Z,19.50
2017-04-25T08:20:12.898Z,19.50
2017-04-25T08:21:12.258Z,19.50
2017-04-25T08:22:11.314Z,19.50
2017-04-25T08:23:11.518Z,19.50
2017-04-25T08:24:13.352Z,19.50
2017-04-25T08:25:11.425Z,19.50
2017-04-25T08:26:13.342Z,19.50
2017-04-25T08:27:11.989Z,19.50
2017-04-25T08:28:11.694Z,19.50
2017-04-25T08:29:11.780Z,19.50
2017-04-25T08:30:12.597Z,19.50
2017-04-25T08:31:13.478Z,19.50
2017-04-25T08:32:12.553Z,19.50
2017-04-25T08:33:12.544Z,19.50
2017-04-25T08:34:12.515Z,19.50
2017-04-25T08:35:11.723Z,19.50
2017-04-25T08:36:13.317Z,19.50
2017-04-25T08:37:12.211Z,19.50
2017-04-25T08:38:11.981Z,19.50
2017-04-25T08:39:12.506Z,19.50
2017-04-25T08:40:11.521Z,19.50
2017-04-25T08:41:12.766Z,19.50
2017-04-25T08:42:11.610Z,19.50
2017-04-25T08:43:12.326Z,19.60
2017-04-25T08:44:13.284Z,19.50
2017-04-25T08:45:09.306Z,19.50
2017-04-25T08:46:12.302Z,19.50
2017-04-25T08:47:12.532Z,19.50
2017-04-25T08:48:11.566Z,19.50
2017-04-25T08:49:11.723Z,19.50
2017-04-25T08:50:11.845Z,19.50
2017-04-25T08:51:13.500Z,19.50
2017-04-25T08:52:11.981Z,19.50
2017-04-25T08:53:11.688Z,19.50
2017-04-25T08:54:11.620Z,19.50
2017-04-25T08:55:11.725Z,19.50
2017-04-25T08:56:12.579Z,19.50
2017-04-25T08:57:12.508Z,19.50
2017-04-25T08:58:11.612Z,19.50
2017-04-25T08:59:11.733Z,19.50
2017-04-25T09:00:13.366Z,19.50
2017-04-25T09:01:11.470Z,19.50
2017-04-25T09:02:15.186Z,19.60
2017-04-25T09:03:11.902Z,19.50
2017-04-25T09:04:12.925Z,19.60
2017-04-25T09:05:11.897Z,19.50
2017-04-25T09:06:11.952Z,19.50
2017-04-25T09:07:14.022Z,19.50
2017-04-25T09:08:11.108Z,19.50
2017-04-25T09:09:11.776Z,19.50
2017-04-25T09:10:10.640Z,19.50
2017-04-25T09:11:12.755Z,19.50
2017-04-25T09:12:09.996Z,19.50
2017-04-25T09:13:12.791Z,19.50
2017-04-25T09:14:11.842Z,19.50
2017-04-25T09:15:11.945Z,19.50
2017-04-25T09:16:12.022Z,19.50
2017-04-25T09:17:12.049Z,19.50
2017-04-25T09:18:11.354Z,19.50
2017-04-25T09:19:13.307Z,19.50
2017-04-25T09:20:11.451Z,19.50
2017-04-25T09:21:12.780Z,19.50
2017-04-25T09:22:11.920Z,19.50
2017-04-25T09:23:10.492Z,19.50
2017-04-25T09:24:09.663Z,19.50
2017-04-25T09:25:12.907Z,19.50
2017-04-25T09:26:11.907Z,19.50
2017-04-25T09:27:12.387Z,19.50
2017-04-25T09:28:11.972Z,19.50
2017-04-25T09:29:11.657Z,19.50
2017-04-25T09:30:12.987Z,19.50
2017-04-25T09:31:13.526Z,19.50
2017-04-25T09:32:13.410Z,19.50
2017-04-25T09:33:12.068Z,19.60
2017-04-25T09:34:13.750Z,19.60
2017-04-25T09:35:11.668Z,19.60
2017-04-25T09:36:12.613Z,19.60
2017-04-25T09:37:12.266Z,19.60
2017-04-25T09:38:15.064Z,19.70
2017-04-25T09:39:11.865Z,19.70
2017-04-25T09:40:13.385Z,19.70
2017-04-25T09:41:12.079Z,19.70
2017-04-25T09:42:11.745Z,19.70
2017-04-25T09:43:09.497Z,19.80
2017-04-25T09:44:08.887Z,19.80
2017-04-25T09:45:12.288Z,19.80
2017-04-25T09:46:11.904Z,19.90
2017-04-25T09:47:12.090Z,19.90
2017-04-25T09:48:11.150Z,19.90
2017-04-25T09:49:11.303Z,19.90
2017-04-25T09:50:13.140Z,20.00
2017-04-25T09:51:11.746Z,20.00
2017-04-25T09:52:12.915Z,20.00
2017-04-25T09:53:12.535Z,20.10
2017-04-25T09:54:12.317Z,20.10
2017-04-25T09:55:09.912Z,20.20
2017-04-25T09:56:12.056Z,20.20
2017-04-25T09:57:11.680Z,20.20
2017-04-25T09:58:12.277Z,20.30
2017-04-25T09:59:09.764Z,20.30
2017-04-25T10:00:11.468Z,20.30
2017-04-25T10:01:11.615Z,20.30
2017-04-25T10:02:12.273Z,20.40
2017-04-25T10:03:10.001Z,20.30
2017-04-25T10:04:12.105Z,20.30
2017-04-25T10:05:11.716Z,20.40
2017-04-25T10:06:12.650Z,20.40
2017-04-25T10:07:11.676Z,20.30
2017-04-25T10:08:11.829Z,20.30
2017-04-25T10:09:12.821Z,20.40
2017-04-25T10:10:12.284Z,20.30
2017-04-25T10:11:09.808Z,20.40
2017-04-25T10:12:09.906Z,20.40
2017-04-25T10:13:12.005Z,20.40
2017-04-25T10:14:11.488Z,20.40
2017-04-25T10:15:13.140Z,20.40
2017-04-25T10:16:11.778Z,20.40
2017-04-25T10:17:12.472Z,20.40
2017-04-25T10:18:11.595Z,20.40
2017-04-25T10:19:14.157Z,20.40
2017-04-25T10:20:11.749Z,20.50
2017-04-25T10:21:13.557Z,20.50
2017-04-25T10:22:12.283Z,20.50
2017-04-25T10:23:11.359Z,20.50
2017-04-25T10:24:13.148Z,20.60
2017-04-25T10:25:08.597Z,20.60
2017-04-25T10:26:12.038Z,20.60
2017-04-25T10:27:12.952Z,20.60
2017-04-25T10:28:12.137Z,20.60
2017-04-25T10:29:11.261Z,20.60
2017-04-25T10:30:11.273Z,20.60
2017-04-25T10:31:08.546Z,20.60
2017-04-25T10:32:12.266Z,20.70
2017-04-25T10:33:11.495Z,20.70
2017-04-25T10:34:13.086Z,20.70
2017-04-25T10:35:11.789Z,20.70
2017-04-25T10:36:12.001Z,20.70
2017-04-25T10:37:11.118Z,20.70
2017-04-25T10:38:11.619Z,20.70
2017-04-25T10:39:12.733Z,20.70
2017-04-25T10:40:11.817Z,20.70
2017-04-25T10:41:12.543Z,20.70
2017-04-25T10:42:11.894Z,20.70
2017-04-25T10:43:11.986Z,20.70
2017-04-25T10:44:11.945Z,20.70
2017-04-25T10:45:11.758Z,20.80
2017-04-25T10:46:12.325Z,20.70
2017-04-25T10:47:12.256Z,20.80
2017-04-25T10:48:11.473Z,20.80
2017-04-25T10:49:11.510Z,20.80
2017-04-25T10:50:11.678Z,20.80
2017-04-25T10:51:12.129Z,20.90
2017-04-25T10:52:11.192Z,20.90
2017-04-25T10:53:12.195Z,20.80
2017-04-25T10:54:11.240Z,20.80
2017-04-25T10:55:11.448Z,20.80
2017-04-25T10:56:11.586Z,20.80
2017-04-25T10:57:12.279Z,20.80
2017-04-25T10:58:11.772Z,20.80
2017-04-25T10:59:12.810Z,20.80
2017-04-25T11:00:13.387Z,20.90
2017-04-25T11:01:12.014Z,20.80
2017-04-25T11:02:11.519Z,20.90
2017-04-25T11:03:13.299Z,20.90
2017-04-25T11:04:13.180Z,20.90
2017-04-25T11:05:12.771Z,20.90
2017-04-25T11:06:10.250Z,20.90
2017-04-25T11:07:12.244Z,20.80
2017-04-25T11:08:11.358Z,20.80
2017-04-25T11:09:13.146Z,20.80
2017-04-25T11:10:09.867Z,20.70
2017-04-25T11:11:13.006Z,20.70
2017-04-25T11:12:11.701Z,20.70
2017-04-25T11:13:11.638Z,20.70
2017-04-25T11:14:12.075Z,20.60
2017-04-25T11:15:11.326Z,20.60
2017-04-25T11:16:11.649Z,20.60
2017-04-25T11:17:09.058Z,20.60
2017-04-25T11:18:12.216Z,20.60
2017-04-25T11:19:11.954Z,20.50
2017-04-25T11:20:12.292Z,20.50
2017-04-25T11:21:11.592Z,20.50
2017-04-25T11:22:13.072Z,20.50
2017-04-25T11:23:12.857Z,20.50
2017-04-25T11:24:11.885Z,20.40
2017-04-25T11:25:12.585Z,20.40
2017-04-25T11:26:12.521Z,20.40
2017-04-25T11:27:09.845Z,20.40
2017-04-25T11:28:12.004Z,20.40
2017-04-25T11:29:12.747Z,20.30
2017-04-25T11:30:12.311Z,20.30
2017-04-25T11:31:13.204Z,20.30
2017-04-25T11:32:13.021Z,20.30
2017-04-25T11:33:13.846Z,20.30
2017-04-25T11:34:10.123Z,20.30
2017-04-25T11:35:11.916Z,20.20
2017-04-25T11:36:11.592Z,20.20
2017-04-25T11:37:13.497Z,20.20
2017-04-25T11:38:12.082Z,20.20
2017-04-25T11:39:11.602Z,20.20
2017-04-25T11:40:10.437Z,20.20
2017-04-25T11:41:11.935Z,20.10
2017-04-25T11:42:11.064Z,20.10
2017-04-25T11:43:11.005Z,20.10
2017-04-25T11:44:12.677Z,20.10
2017-04-25T11:45:11.708Z,20.10
2017-04-25T11:46:11.612Z,20.10
2017-04-25T11:47:13.132Z,20.10
2017-04-25T11:48:11.848Z,20.10
2017-04-25T11:49:15.492Z,20.10
2017-04-25T11:50:11.483Z,20.00
2017-04-25T11:51:12.129Z,20.00
2017-04-25T11:52:11.750Z,20.00
2017-04-25T11:53:12.730Z,20.00
2017-04-25T11:54:11.608Z,20.00
2017-04-25T11:55:12.435Z,20.00
2017-04-25T11:56:14.109Z,20.00
2017-04-25T11:57:11.599Z,20.00
2017-04-25T11:58:11.732Z,20.00
2017-04-25T11:59:11.898Z,20.00
2017-04-25T12:00:11.922Z,20.00
2017-04-25T12:01:12.022Z,20.00
2017-04-25T12:02:11.280Z,19.90
2017-04-25T12:03:11.833Z,20.00
2017-04-25T12:04:12.463Z,19.90
2017-04-25T12:05:12.008Z,19.90
2017-04-25T12:06:11.724Z,19.90
2017-04-25T12:07:12.617Z,19.90
2017-04-25T12:08:11.966Z,19.90
2017-04-25T12:09:11.779Z,19.90
2017-04-25T12:10:11.943Z,19.90
2017-04-25T12:11:13.126Z,19.90
2017-04-25T12:12:11.194Z,19.90
2017-04-25T12:13:13.006Z,19.90
2017-04-25T12:14:12.770Z,19.90
2017-04-25T12:15:13.493Z,19.90
2017-04-25T12:16:11.395Z,19.90
2017-04-25T12:17:12.288Z,19.90
2017-04-25T12:18:11.412Z,19.90
2017-04-25T12:19:11.556Z,19.90
2017-04-25T12:20:12.392Z,19.90
2017-04-25T12:21:11.427Z,19.90
2017-04-25T12:22:12.073Z,19.90
2017-04-25T12:23:11.709Z,19.90
2017-04-25T12:24:12.274Z,19.90
2017-04-25T12:25:12.286Z,19.90
2017-04-25T12:26:09.466Z,19.90
2017-04-25T12:27:12.020Z,19.90
2017-04-25T12:28:12.360Z,19.90
2017-04-25T12:29:11.452Z,19.90
2017-04-25T12:30:14.376Z,19.90
2017-04-25T12:31:11.531Z,19.90
2017-04-25T12:32:14.154Z,19.90
2017-04-25T12:33:12.290Z,19.90
2017-04-25T12:34:13.570Z,19.90
2017-04-25T12:35:13.888Z,19.90
2017-04-25T12:36:15.160Z,19.90
2017-04-25T12:37:13.283Z,19.90
2017-04-25T12:38:13.884Z,19.90
2017-04-25T12:39:09.427Z,19.90
2017-04-25T12:40:14.535Z,19.90
2017-04-25T12:41:14.033Z,19.90
2017-04-25T12:42:13.842Z,19.90
2017-04-25T12:43:12.544Z,19.90
2017-04-25T12:44:12.517Z,19.90
2017-04-25T12:45:11.674Z,19.90
2017-04-25T12:46:13.365Z,19.90
2017-04-25T12:47:12.199Z,19.80
2017-04-25T12:48:13.112Z,19.90
2017-04-25T12:49:11.672Z,19.90
2017-04-25T12:50:12.852Z,19.80
2017-04-25T12:51:13.104Z,19.80
2017-04-25T12:52:14.194Z,19.80